sensor_id;sensor_type;location;lat;lon;timestamp;pressure;altitude;pressure_sealevel;temperature;humidity
6413;BME280;3239;48.714;9.472;2023-09-19T00:02:17;97625.13;;;16.53;100.00
6413;BME280;3239;48.714;9.472;2023-09-19T00:04:43;97623.25;;;16.55;100.00
6413;BME280;3239;48.714;9.472;2023-09-19T00:07:09;97622.94;;;16.61;100.00
6413;BME280;3239;48.714;9.472;2023-09-19T00:09:34;97625.16;;;16.62;100.00
6413;BME280;3239;48.714;9.472;2023-09-19T00:12:05;97619.84;;;16.47;100.00
6413;BME280;3239;48.714;9.472;2023-09-19T00:14:30;97632.56;;;16.60;100.00
6413;BME280;3239;48.714;9.472;2023-09-19T00:17:00;97629.59;;;16.48;100.00
6413;BME280;3239;48.714;9.472;2023-09-19T00:19:26;97629.59;;;16.48;100.00
6413;BME280;3239;48.714;9.472;2023-09-19T00:21:52;97620.59;;;16.48;100.00
6413;BME280;3239;48.714;9.472;2023-09-19T00:24:18;97626.00;;;16.55;100.00
6413;BME280;3239;48.714;9.472;2023-09-19T00:26:44;97623.94;;;16.56;100.00
6413;BME280;3239;48.714;9.472;2023-09-19T00:29:12;97624.69;;;16.56;100.00
6413;BME280;3239;48.714;9.472;2023-09-19T00:31:44;97627.78;;;16.60;100.00
6413;BME280;3239;48.714;9.472;2023-09-19T00:34:10;97640.22;;;16.52;100.00
6413;BME280;3239;48.714;9.472;2023-09-19T00:36:37;97636.19;;;16.53;100.00
6413;BME280;3239;48.714;9.472;2023-09-19T00:39:05;97625.84;;;16.53;100.00
6413;BME280;3239;48.714;9.472;2023-09-19T00:41:32;97627.59;;;16.58;100.00
6413;BME280;3239;48.714;9.472;2023-09-19T00:43:57;97631.53;;;16.55;100.00
6413;BME280;3239;48.714;9.472;2023-09-19T00:46:25;97627.59;;;16.58;100.00
6413;BME280;3239;48.714;9.472;2023-09-19T00:48:51;97623.56;;;16.69;100.00
6413;BME280;3239;48.714;9.472;2023-09-19T00:51:16;97615.69;;;16.65;100.00
6413;BME280;3239;48.714;9.472;2023-09-19T00:53:47;97615.28;;;16.69;100.00
6413;BME280;3239;48.714;9.472;2023-09-19T00:56:14;97621.50;;;16.69;100.00
6413;BME280;3239;48.714;9.472;2023-09-19T00:58:40;97610.44;;;16.69;100.00
6413;BME280;3239;48.714;9.472;2023-09-19T01:01:06;97621.06;;;16.63;100.00
6413;BME280;3239;48.714;9.472;2023-09-19T01:03:33;97616.59;;;16.68;100.00
6413;BME280;3239;48.714;9.472;2023-09-19T01:05:59;97624.56;;;16.64;100.00
6413;BME280;3239;48.714;9.472;2023-09-19T01:08:26;97623.56;;;16.69;100.00
6413;BME280;3239;48.714;9.472;2023-09-19T01:11:09;97632.00;;;16.71;100.00
6413;BME280;3239;48.714;9.472;2023-09-19T01:16:45;97640.00;;;16.67;100.00
6413;BME280;3239;48.714;9.472;2023-09-19T01:22:26;97638.72;;;16.68;100.00
6413;BME280;3239;48.714;9.472;2023-09-19T01:30:46;97642.63;;;16.65;100.00
6413;BME280;3239;48.714;9.472;2023-09-19T01:33:12;97637.97;;;16.67;100.00
6413;BME280;3239;48.714;9.472;2023-09-19T01:35:40;97640.28;;;16.61;100.00
6413;BME280;3239;48.714;9.472;2023-09-19T01:38:08;97640.44;;;16.63;100.00
6413;BME280;3239;48.714;9.472;2023-09-19T01:40:41;97642.94;;;16.69;100.00
6413;BME280;3239;48.714;9.472;2023-09-19T01:51:56;97666.22;;;16.75;100.00
6413;BME280;3239;48.714;9.472;2023-09-19T01:54:12;97671.03;;;16.65;100.00
6413;BME280;3239;48.714;9.472;2023-09-19T01:56:53;97673.81;;;16.75;100.00
6413;BME280;3239;48.714;9.472;2023-09-19T01:59:25;97674.69;;;16.77;100.00
6413;BME280;3239;48.714;9.472;2023-09-19T02:01:53;97686.91;;;16.74;100.00
6413;BME280;3239;48.714;9.472;2023-09-19T02:04:20;97691.44;;;16.79;100.00
6413;BME280;3239;48.714;9.472;2023-09-19T02:06:45;97687.66;;;16.84;100.00
6413;BME280;3239;48.714;9.472;2023-09-19T02:09:14;97687.66;;;16.84;100.00
6413;BME280;3239;48.714;9.472;2023-09-19T02:11:40;97701.50;;;16.84;100.00
6413;BME280;3239;48.714;9.472;2023-09-19T02:14:06;97703.97;;;16.80;100.00
6413;BME280;3239;48.714;9.472;2023-09-19T02:16:34;97706.31;;;16.84;100.00
6413;BME280;3239;48.714;9.472;2023-09-19T02:19:00;97712.00;;;16.86;100.00
6413;BME280;3239;48.714;9.472;2023-09-19T02:21:26;97709.97;;;16.86;100.00
6413;BME280;3239;48.714;9.472;2023-09-19T02:23:55;97713.59;;;16.89;100.00
6413;BME280;3239;48.714;9.472;2023-09-19T02:26:21;97711.72;;;16.91;100.00
6413;BME280;3239;48.714;9.472;2023-09-19T02:28:47;97724.09;;;16.90;100.00
6413;BME280;3239;48.714;9.472;2023-09-19T02:31:12;97722.06;;;16.91;100.00
6413;BME280;3239;48.714;9.472;2023-09-19T02:33:38;97719.88;;;16.89;100.00
6413;BME280;3239;48.714;9.472;2023-09-19T02:36:04;97721.59;;;16.85;100.00
6413;BME280;3239;48.714;9.472;2023-09-19T02:38:30;97723.06;;;16.86;100.00
6413;BME280;3239;48.714;9.472;2023-09-19T02:40:56;97719.97;;;16.82;100.00
6413;BME280;3239;48.714;9.472;2023-09-19T02:43:22;97714.13;;;16.78;100.00
6413;BME280;3239;48.714;9.472;2023-09-19T02:45:49;97718.38;;;16.79;100.00
6413;BME280;3239;48.714;9.472;2023-09-19T02:48:16;97721.56;;;16.75;100.00
6413;BME280;3239;48.714;9.472;2023-09-19T02:50:42;97730.28;;;16.72;100.00
6413;BME280;3239;48.714;9.472;2023-09-19T02:53:08;97732.59;;;16.66;100.00
6413;BME280;3239;48.714;9.472;2023-09-19T02:55:33;97729.59;;;16.54;100.00
6413;BME280;3239;48.714;9.472;2023-09-19T02:57:59;97730.13;;;16.43;100.00
6413;BME280;3239;48.714;9.472;2023-09-19T03:00:26;97726.84;;;16.28;100.00
6413;BME280;3239;48.714;9.472;2023-09-19T03:02:53;97730.00;;;16.24;100.00
6413;BME280;3239;48.714;9.472;2023-09-19T03:05:19;97734.47;;;16.20;100.00
6413;BME280;3239;48.714;9.472;2023-09-19T03:07:47;97741.88;;;16.17;100.00
6413;BME280;3239;48.714;9.472;2023-09-19T03:10:16;97740.53;;;16.09;100.00
6413;BME280;3239;48.714;9.472;2023-09-19T03:12:43;97733.81;;;16.02;100.00
6413;BME280;3239;48.714;9.472;2023-09-19T03:15:09;97737.22;;;15.93;100.00
6413;BME280;3239;48.714;9.472;2023-09-19T03:17:35;97739.97;;;15.93;100.00
6413;BME280;3239;48.714;9.472;2023-09-19T03:20:02;97734.19;;;15.99;100.00
6413;BME280;3239;48.714;9.472;2023-09-19T03:22:28;97735.81;;;16.02;100.00
6413;BME280;3239;48.714;9.472;2023-09-19T03:24:54;97733.84;;;16.12;100.00
6413;BME280;3239;48.714;9.472;2023-09-19T03:27:20;97733.84;;;16.12;100.00
6413;BME280;3239;48.714;9.472;2023-09-19T03:29:46;97729.69;;;16.20;100.00
6413;BME280;3239;48.714;9.472;2023-09-19T03:32:12;97724.72;;;16.19;100.00
6413;BME280;3239;48.714;9.472;2023-09-19T03:34:38;97728.25;;;16.19;100.00
6413;BME280;3239;48.714;9.472;2023-09-19T03:37:09;97715.78;;;16.28;100.00
6413;BME280;3239;48.714;9.472;2023-09-19T03:39:35;97709.25;;;16.33;100.00
6413;BME280;3239;48.714;9.472;2023-09-19T03:42:02;97702.56;;;16.36;100.00
6413;BME280;3239;48.714;9.472;2023-09-19T03:44:32;97712.50;;;16.39;100.00
6413;BME280;3239;48.714;9.472;2023-09-19T03:46:58;97704.22;;;16.39;100.00
6413;BME280;3239;48.714;9.472;2023-09-19T03:49:23;97713.06;;;16.37;100.00
6413;BME280;3239;48.714;9.472;2023-09-19T03:51:49;97711.03;;;16.38;100.00
6413;BME280;3239;48.714;9.472;2023-09-19T03:54:15;97705.19;;;16.34;100.00
6413;BME280;3239;48.714;9.472;2023-09-19T03:56:42;97709.91;;;16.41;100.00
6413;BME280;3239;48.714;9.472;2023-09-19T03:59:09;97716.09;;;16.32;100.00
6413;BME280;3239;48.714;9.472;2023-09-19T04:01:35;97715.81;;;16.37;100.00
6413;BME280;3239;48.714;9.472;2023-09-19T04:04:00;97715.28;;;16.39;100.00
6413;BME280;3239;48.714;9.472;2023-09-19T04:06:36;97704.97;;;16.39;100.00
6413;BME280;3239;48.714;9.472;2023-09-19T04:09:03;97715.44;;;16.41;100.00
6413;BME280;3239;48.714;9.472;2023-09-19T04:11:32;97719.16;;;16.36;100.00
6413;BME280;3239;48.714;9.472;2023-09-19T04:13:58;97706.91;;;16.29;100.00
6413;BME280;3239;48.714;9.472;2023-09-19T04:16:24;97705.50;;;16.38;100.00
6413;BME280;3239;48.714;9.472;2023-09-19T04:18:50;97713.00;;;16.28;100.00
6413;BME280;3239;48.714;9.472;2023-09-19T04:21:16;97716.97;;;16.34;100.00
6413;BME280;3239;48.714;9.472;2023-09-19T04:23:42;97715.34;;;16.31;100.00
6413;BME280;3239;48.714;9.472;2023-09-19T04:26:08;97724.22;;;16.30;100.00
6413;BME280;3239;48.714;9.472;2023-09-19T04:28:33;97721.06;;;16.16;100.00
6413;BME280;3239;48.714;9.472;2023-09-19T04:31:00;97716.13;;;16.15;100.00
6413;BME280;3239;48.714;9.472;2023-09-19T04:33:26;97727.91;;;16.15;100.00
6413;BME280;3239;48.714;9.472;2023-09-19T04:35:55;97721.06;;;16.16;100.00
6413;BME280;3239;48.714;9.472;2023-09-19T04:38:21;97733.44;;;16.15;100.00
6413;BME280;3239;48.714;9.472;2023-09-19T04:40:47;97731.00;;;16.19;100.00
6413;BME280;3239;48.714;9.472;2023-09-19T04:43:13;97729.94;;;16.15;100.00
6413;BME280;3239;48.714;9.472;2023-09-19T04:45:39;97733.03;;;16.19;100.00
6413;BME280;3239;48.714;9.472;2023-09-19T04:48:07;97738.56;;;16.19;100.00
6413;BME280;3239;48.714;9.472;2023-09-19T04:50:34;97732.56;;;16.13;100.00
6413;BME280;3239;48.714;9.472;2023-09-19T04:52:59;97734.75;;;16.14;100.00
6413;BME280;3239;48.714;9.472;2023-09-19T04:55:26;97737.09;;;16.18;100.00
6413;BME280;3239;48.714;9.472;2023-09-19T04:57:52;97732.13;;;16.16;100.00
6413;BME280;3239;48.714;9.472;2023-09-19T05:00:20;97733.44;;;16.15;100.00
6413;BME280;3239;48.714;9.472;2023-09-19T05:02:50;97733.94;;;16.04;100.00
6413;BME280;3239;48.714;9.472;2023-09-19T05:05:17;97732.06;;;16.07;100.00
6413;BME280;3239;48.714;9.472;2023-09-19T05:07:43;97742.25;;;16.04;100.00
6413;BME280;3239;48.714;9.472;2023-09-19T05:10:09;97741.81;;;16.08;100.00
6413;BME280;3239;48.714;9.472;2023-09-19T05:12:35;97743.69;;;16.05;100.00
6413;BME280;3239;48.714;9.472;2023-09-19T05:15:05;97738.50;;;16.09;100.00
6413;BME280;3239;48.714;9.472;2023-09-19T05:17:32;97737.59;;;16.07;100.00
6413;BME280;3239;48.714;9.472;2023-09-19T05:19:58;97746.28;;;16.20;100.00
6413;BME280;3239;48.714;9.472;2023-09-19T05:22:26;97743.00;;;16.31;100.00
6413;BME280;3239;48.714;9.472;2023-09-19T05:24:52;97750.09;;;16.42;100.00
6413;BME280;3239;48.714;9.472;2023-09-19T05:27:19;97745.16;;;16.50;100.00
6413;BME280;3239;48.714;9.472;2023-09-19T05:29:46;97751.91;;;16.56;100.00
6413;BME280;3239;48.714;9.472;2023-09-19T05:32:12;97760.66;;;16.62;100.00
6413;BME280;3239;48.714;9.472;2023-09-19T05:34:38;97765.22;;;16.67;100.00
6413;BME280;3239;48.714;9.472;2023-09-19T05:37:04;97773.22;;;16.73;100.00
6413;BME280;3239;48.714;9.472;2023-09-19T05:39:33;97770.47;;;16.73;100.00
6413;BME280;3239;48.714;9.472;2023-09-19T05:41:59;97774.25;;;16.68;100.00
6413;BME280;3239;48.714;9.472;2023-09-19T05:44:25;97787.19;;;16.65;100.00
6413;BME280;3239;48.714;9.472;2023-09-19T05:46:51;97795.59;;;16.58;100.00
6413;BME280;3239;48.714;9.472;2023-09-19T05:49:17;97790.44;;;16.54;100.00
6413;BME280;3239;48.714;9.472;2023-09-19T05:51:43;97785.50;;;16.53;100.00
6413;BME280;3239;48.714;9.472;2023-09-19T05:54:08;97789.09;;;16.46;100.00
6413;BME280;3239;48.714;9.472;2023-09-19T05:56:34;97783.72;;;16.31;100.00
6413;BME280;3239;48.714;9.472;2023-09-19T05:59:00;97774.56;;;16.28;100.00
6413;BME280;3239;48.714;9.472;2023-09-19T06:01:25;97770.13;;;16.16;100.00
6413;BME280;3239;48.714;9.472;2023-09-19T06:03:52;97773.19;;;16.20;100.00
6413;BME280;3239;48.714;9.472;2023-09-19T06:06:18;97768.06;;;16.16;100.00
6413;BME280;3239;48.714;9.472;2023-09-19T06:08:44;97768.53;;;16.22;100.00
6413;BME280;3239;48.714;9.472;2023-09-19T06:11:10;97768.16;;;16.26;100.00
6413;BME280;3239;48.714;9.472;2023-09-19T06:13:36;97758.84;;;16.31;100.00
6413;BME280;3239;48.714;9.472;2023-09-19T06:16:03;97760.56;;;16.26;100.00
6413;BME280;3239;48.714;9.472;2023-09-19T06:18:33;97765.25;;;16.33;100.00
6413;BME280;3239;48.714;9.472;2023-09-19T06:20:59;97757.84;;;16.36;100.00
6413;BME280;3239;48.714;9.472;2023-09-19T06:23:25;97771.03;;;16.45;100.00
6413;BME280;3239;48.714;9.472;2023-09-19T06:25:55;97777.31;;;16.45;100.00
6413;BME280;3239;48.714;9.472;2023-09-19T06:28:20;97773.81;;;16.45;100.00
6413;BME280;3239;48.714;9.472;2023-09-19T06:30:50;97764.47;;;16.40;100.00
6413;BME280;3239;48.714;9.472;2023-09-19T06:33:16;97755.69;;;16.34;100.00
6413;BME280;3239;48.714;9.472;2023-09-19T06:35:43;97770.38;;;15.93;100.00
6413;BME280;3239;48.714;9.472;2023-09-19T06:38:12;97774.09;;;16.05;100.00
6413;BME280;3239;48.714;9.472;2023-09-19T06:40:38;97777.13;;;16.00;100.00
6413;BME280;3239;48.714;9.472;2023-09-19T06:43:05;97779.47;;;15.86;100.00
6413;BME280;3239;48.714;9.472;2023-09-19T06:45:30;97783.78;;;15.80;100.00
6413;BME280;3239;48.714;9.472;2023-09-19T06:47:57;97794.84;;;15.80;100.00
6413;BME280;3239;48.714;9.472;2023-09-19T06:50:23;97796.13;;;15.79;100.00
6413;BME280;3239;48.714;9.472;2023-09-19T06:52:50;97788.41;;;15.77;100.00
6413;BME280;3239;48.714;9.472;2023-09-19T06:55:21;97786.88;;;15.84;100.00
6413;BME280;3239;48.714;9.472;2023-09-19T06:57:49;97782.00;;;15.75;100.00
6413;BME280;3239;48.714;9.472;2023-09-19T07:00:15;97785.81;;;15.79;100.00
6413;BME280;3239;48.714;9.472;2023-09-19T07:02:42;97791.16;;;15.77;100.00
6413;BME280;3239;48.714;9.472;2023-09-19T07:05:07;97782.25;;;15.86;100.00
6413;BME280;3239;48.714;9.472;2023-09-19T07:07:33;97785.91;;;15.89;100.00
6413;BME280;3239;48.714;9.472;2023-09-19T07:10:01;97792.22;;;15.99;100.00
6413;BME280;3239;48.714;9.472;2023-09-19T07:12:27;97780.03;;;16.02;100.00
6413;BME280;3239;48.714;9.472;2023-09-19T07:14:53;97780.28;;;16.13;100.00
6413;BME280;3239;48.714;9.472;2023-09-19T07:17:18;97780.44;;;16.15;100.00
6413;BME280;3239;48.714;9.472;2023-09-19T07:19:45;97785.88;;;16.23;100.00
6413;BME280;3239;48.714;9.472;2023-09-19T07:22:11;97786.59;;;16.40;100.00
6413;BME280;3239;48.714;9.472;2023-09-19T07:24:36;97789.16;;;16.38;100.00
6413;BME280;3239;48.714;9.472;2023-09-19T07:27:02;97793.84;;;16.89;100.00
6413;BME280;3239;48.714;9.472;2023-09-19T07:29:28;97783.19;;;17.21;100.00
6413;BME280;3239;48.714;9.472;2023-09-19T07:31:54;97789.28;;;17.46;100.00
6413;BME280;3239;48.714;9.472;2023-09-19T07:34:19;97804.81;;;17.97;100.00
6413;BME280;3239;48.714;9.472;2023-09-19T07:36:48;97809.47;;;18.23;100.00
6413;BME280;3239;48.714;9.472;2023-09-19T07:39:14;97814.88;;;18.30;100.00
6413;BME280;3239;48.714;9.472;2023-09-19T07:41:39;97831.84;;;18.34;100.00
6413;BME280;3239;48.714;9.472;2023-09-19T07:44:05;97835.75;;;18.60;100.00
6413;BME280;3239;48.714;9.472;2023-09-19T07:46:31;97841.56;;;18.73;100.00
6413;BME280;3239;48.714;9.472;2023-09-19T07:48:57;97853.56;;;18.66;100.00
6413;BME280;3239;48.714;9.472;2023-09-19T07:51:23;97875.75;;;18.66;100.00
6413;BME280;3239;48.714;9.472;2023-09-19T07:53:48;97867.69;;;18.89;100.00
6413;BME280;3239;48.714;9.472;2023-09-19T07:56:14;97895.16;;;18.76;100.00
6413;BME280;3239;48.714;9.472;2023-09-19T07:58:41;97892.28;;;18.45;100.00
6413;BME280;3239;48.714;9.472;2023-09-19T08:01:10;97905.53;;;18.66;100.00
6413;BME280;3239;48.714;9.472;2023-09-19T08:03:36;97907.44;;;18.73;100.00
6413;BME280;3239;48.714;9.472;2023-09-19T08:06:06;97916.78;;;18.68;100.00
6413;BME280;3239;48.714;9.472;2023-09-19T08:08:33;97920.44;;;18.70;100.00
6413;BME280;3239;48.714;9.472;2023-09-19T08:11:03;97925.84;;;18.49;100.00
6413;BME280;3239;48.714;9.472;2023-09-19T08:13:37;97934.53;;;18.08;100.00
6413;BME280;3239;48.714;9.472;2023-09-19T08:16:05;97936.66;;;18.45;100.00
6413;BME280;3239;48.714;9.472;2023-09-19T08:18:31;97939.84;;;18.99;100.00
6413;BME280;3239;48.714;9.472;2023-09-19T08:20:57;97951.66;;;19.28;100.00
6413;BME280;3239;48.714;9.472;2023-09-19T08:23:26;97951.66;;;19.09;100.00
6413;BME280;3239;48.714;9.472;2023-09-19T08:25:56;97956.31;;;19.16;100.00
6413;BME280;3239;48.714;9.472;2023-09-19T08:28:22;97955.00;;;19.36;100.00
6413;BME280;3239;48.714;9.472;2023-09-19T08:30:50;97950.81;;;19.96;100.00
6413;BME280;3239;48.714;9.472;2023-09-19T08:33:16;97959.16;;;20.47;100.00
6413;BME280;3239;48.714;9.472;2023-09-19T08:35:42;97962.31;;;20.11;100.00
6413;BME280;3239;48.714;9.472;2023-09-19T08:38:09;97964.66;;;20.36;100.00
6413;BME280;3239;48.714;9.472;2023-09-19T08:40:37;97969.03;;;20.81;100.00
6413;BME280;3239;48.714;9.472;2023-09-19T08:43:05;97978.16;;;21.69;100.00
6413;BME280;3239;48.714;9.472;2023-09-19T08:45:33;97977.44;;;22.26;100.00
6413;BME280;3239;48.714;9.472;2023-09-19T08:50:36;98003.59;;;19.75;100.00
6413;BME280;3239;48.714;9.472;2023-09-19T08:53:11;98005.38;;;20.10;100.00
6413;BME280;3239;48.714;9.472;2023-09-19T08:55:41;98004.78;;;20.63;100.00
6413;BME280;3239;48.714;9.472;2023-09-19T08:58:10;98020.94;;;20.97;100.00
6413;BME280;3239;48.714;9.472;2023-09-19T09:00:36;98032.09;;;20.25;100.00
6413;BME280;3239;48.714;9.472;2023-09-19T09:03:03;98032.59;;;20.42;100.00
6413;BME280;3239;48.714;9.472;2023-09-19T09:05:31;98035.03;;;20.27;100.00
6413;BME280;3239;48.714;9.472;2023-09-19T09:07:58;98038.91;;;20.03;100.00
6413;BME280;3239;48.714;9.472;2023-09-19T09:10:25;98051.44;;;19.73;100.00
6413;BME280;3239;48.714;9.472;2023-09-19T09:12:53;98055.28;;;19.59;100.00
6413;BME280;3239;48.714;9.472;2023-09-19T09:15:23;98062.88;;;19.58;100.00
6413;BME280;3239;48.714;9.472;2023-09-19T09:17:50;98059.50;;;19.60;100.00
6413;BME280;3239;48.714;9.472;2023-09-19T09:20:19;98063.72;;;19.70;100.00
6413;BME280;3239;48.714;9.472;2023-09-19T09:22:55;98067.03;;;20.07;100.00
6413;BME280;3239;48.714;9.472;2023-09-19T09:25:23;98067.72;;;20.17;100.00
6413;BME280;3239;48.714;9.472;2023-09-19T09:28:09;98065.75;;;20.59;100.00
6413;BME280;3239;48.714;9.472;2023-09-19T09:30:35;98069.09;;;21.09;100.00
6413;BME280;3239;48.714;9.472;2023-09-19T09:33:12;98064.44;;;21.02;100.00
6413;BME280;3239;48.714;9.472;2023-09-19T09:35:56;98082.97;;;21.84;100.00
6413;BME280;3239;48.714;9.472;2023-09-19T09:38:29;98088.88;;;22.45;100.00
6413;BME280;3239;48.714;9.472;2023-09-19T09:40:59;98103.63;;;23.05;100.00
6413;BME280;3239;48.714;9.472;2023-09-19T09:43:31;98124.16;;;22.29;100.00
6413;BME280;3239;48.714;9.472;2023-09-19T09:49:00;98154.34;;;21.03;100.00
6413;BME280;3239;48.714;9.472;2023-09-19T09:52:06;98160.91;;;20.37;100.00
6413;BME280;3239;48.714;9.472;2023-09-19T09:55:02;98152.59;;;20.98;100.00
6413;BME280;3239;48.714;9.472;2023-09-19T09:57:33;98155.41;;;22.05;100.00
6413;BME280;3239;48.714;9.472;2023-09-19T10:00:00;98164.66;;;22.07;100.00
6413;BME280;3239;48.714;9.472;2023-09-19T10:02:42;98165.41;;;22.19;100.00
6413;BME280;3239;48.714;9.472;2023-09-19T10:05:17;98171.59;;;22.18;100.00
6413;BME280;3239;48.714;9.472;2023-09-19T10:07:52;98176.44;;;20.80;100.00
6413;BME280;3239;48.714;9.472;2023-09-19T10:10:37;98180.59;;;19.91;100.00
6413;BME280;3239;48.714;9.472;2023-09-19T10:13:10;98179.25;;;20.21;100.00
6413;BME280;3239;48.714;9.472;2023-09-19T10:15:48;98175.19;;;20.22;100.00
6413;BME280;3239;48.714;9.472;2023-09-19T10:18:21;98168.38;;;20.44;100.00
6413;BME280;3239;48.714;9.472;2023-09-19T10:20:47;98167.59;;;20.83;100.00
6413;BME280;3239;48.714;9.472;2023-09-19T10:23:19;98175.63;;;20.98;100.00
6413;BME280;3239;48.714;9.472;2023-09-19T10:25:49;98174.50;;;21.13;100.00
6413;BME280;3239;48.714;9.472;2023-09-19T10:28:16;98173.97;;;22.00;100.00
6413;BME280;3239;48.714;9.472;2023-09-19T10:30:51;98178.13;;;22.89;100.00
6413;BME280;3239;48.714;9.472;2023-09-19T10:33:18;98176.25;;;23.28;100.00
6413;BME280;3239;48.714;9.472;2023-09-19T10:35:49;98184.53;;;23.74;100.00
6413;BME280;3239;48.714;9.472;2023-09-19T10:38:18;98173.41;;;23.51;100.00
6413;BME280;3239;48.714;9.472;2023-09-19T10:40:51;98177.59;;;23.39;100.00
6413;BME280;3239;48.714;9.472;2023-09-19T10:43:19;98174.78;;;23.39;100.00
6413;BME280;3239;48.714;9.472;2023-09-19T10:45:45;98178.72;;;22.76;100.00
6413;BME280;3239;48.714;9.472;2023-09-19T10:48:15;98181.53;;;22.99;100.00
6413;BME280;3239;48.714;9.472;2023-09-19T10:50:53;98191.28;;;22.43;100.00
6413;BME280;3239;48.714;9.472;2023-09-19T10:53:25;98175.81;;;22.07;100.00
6413;BME280;3239;48.714;9.472;2023-09-19T10:55:56;98180.53;;;22.60;100.00
6413;BME280;3239;48.714;9.472;2023-09-19T10:58:26;98183.25;;;22.14;100.00
6413;BME280;3239;48.714;9.472;2023-09-19T11:00:58;98183.06;;;23.14;100.00
6413;BME280;3239;48.714;9.472;2023-09-19T11:03:42;98183.84;;;23.87;100.00
6413;BME280;3239;48.714;9.472;2023-09-19T11:06:17;98177.59;;;23.27;100.00
6413;BME280;3239;48.714;9.472;2023-09-19T11:11:41;98166.94;;;24.87;100.00
6413;BME280;3239;48.714;9.472;2023-09-19T11:30:37;98153.50;;;22.19;100.00
6413;BME280;3239;48.714;9.472;2023-09-19T11:36:03;98148.69;;;22.31;100.00
6413;BME280;3239;48.714;9.472;2023-09-19T11:46:20;98145.41;;;23.15;100.00
6413;BME280;3239;48.714;9.472;2023-09-19T11:48:49;98136.84;;;23.47;100.00
6413;BME280;3239;48.714;9.472;2023-09-19T11:51:25;98128.97;;;23.32;100.00
6413;BME280;3239;48.714;9.472;2023-09-19T11:53:56;98138.28;;;22.54;100.00
6413;BME280;3239;48.714;9.472;2023-09-19T11:56:24;98144.97;;;22.61;100.00
6413;BME280;3239;48.714;9.472;2023-09-19T11:58:52;98140.72;;;22.60;100.00
6413;BME280;3239;48.714;9.472;2023-09-19T12:01:30;98139.13;;;22.80;100.00
6413;BME280;3239;48.714;9.472;2023-09-19T12:03:58;98142.25;;;22.97;100.00
6413;BME280;3239;48.714;9.472;2023-09-19T12:06:25;98132.41;;;23.08;100.00
6413;BME280;3239;48.714;9.472;2023-09-19T12:08:51;98128.63;;;23.03;100.00
6413;BME280;3239;48.714;9.472;2023-09-19T12:11:20;98127.59;;;22.51;100.00
6413;BME280;3239;48.714;9.472;2023-09-19T12:13:47;98132.09;;;21.89;100.00
6413;BME280;3239;48.714;9.472;2023-09-19T12:18:44;98125.19;;;23.39;100.00
6413;BME280;3239;48.714;9.472;2023-09-19T12:21:29;98120.91;;;23.50;100.00
6413;BME280;3239;48.714;9.472;2023-09-19T12:24:13;98116.25;;;22.95;100.00
6413;BME280;3239;48.714;9.472;2023-09-19T12:26:43;98125.47;;;23.57;100.00
6413;BME280;3239;48.714;9.472;2023-09-19T12:29:12;98115.00;;;23.82;100.00
6413;BME280;3239;48.714;9.472;2023-09-19T12:31:52;98116.34;;;24.45;100.00
6413;BME280;3239;48.714;9.472;2023-09-19T12:34:30;98122.34;;;24.39;100.00
6413;BME280;3239;48.714;9.472;2023-09-19T12:37:06;98104.72;;;25.04;100.00
6413;BME280;3239;48.714;9.472;2023-09-19T12:39:39;98108.88;;;25.03;97.84
6413;BME280;3239;48.714;9.472;2023-09-19T12:42:11;98104.88;;;24.93;90.67
6413;BME280;3239;48.714;9.472;2023-09-19T12:44:44;98097.66;;;25.30;87.36
6413;BME280;3239;48.714;9.472;2023-09-19T12:47:11;98090.31;;;24.56;86.78
6413;BME280;3239;48.714;9.472;2023-09-19T12:50:10;98106.69;;;24.48;95.51
6413;BME280;3239;48.714;9.472;2023-09-19T12:52:44;98096.78;;;24.85;95.94
6413;BME280;3239;48.714;9.472;2023-09-19T12:55:31;98095.41;;;25.00;94.26
6413;BME280;3239;48.714;9.472;2023-09-19T12:58:12;98094.56;;;24.97;92.79
6413;BME280;3239;48.714;9.472;2023-09-19T13:00:42;98084.94;;;25.43;87.58
6413;BME280;3239;48.714;9.472;2023-09-19T13:05:51;98078.78;;;26.66;81.65
6413;BME280;3239;48.714;9.472;2023-09-19T13:08:18;98075.09;;;27.45;78.17
6413;BME280;3239;48.714;9.472;2023-09-19T13:14:13;98085.03;;;26.03;78.14
6413;BME280;3239;48.714;9.472;2023-09-19T13:16:26;98085.50;;;25.84;83.68
6413;BME280;3239;48.714;9.472;2023-09-19T13:18:53;98081.47;;;26.49;78.07
6413;BME280;3239;48.714;9.472;2023-09-19T13:21:30;98076.88;;;27.04;76.20
6413;BME280;3239;48.714;9.472;2023-09-19T13:24:22;98069.75;;;28.06;72.11
6413;BME280;3239;48.714;9.472;2023-09-19T13:26:55;98070.19;;;27.13;68.39
6413;BME280;3239;48.714;9.472;2023-09-19T13:29:22;98065.38;;;27.31;74.11
6413;BME280;3239;48.714;9.472;2023-09-19T13:31:49;98056.59;;;27.23;71.03
6413;BME280;3239;48.714;9.472;2023-09-19T13:34:15;98051.38;;;27.50;73.32
6413;BME280;3239;48.714;9.472;2023-09-19T13:36:42;98060.06;;;27.21;70.82
6413;BME280;3239;48.714;9.472;2023-09-19T13:39:10;98064.38;;;26.27;72.89
6413;BME280;3239;48.714;9.472;2023-09-19T13:41:38;98060.59;;;26.85;75.05
6413;BME280;3239;48.714;9.472;2023-09-19T13:44:04;98047.56;;;27.96;71.13
6413;BME280;3239;48.714;9.472;2023-09-19T13:46:31;98048.66;;;28.26;66.55
6413;BME280;3239;48.714;9.472;2023-09-19T13:48:59;98049.22;;;26.65;70.04
6413;BME280;3239;48.714;9.472;2023-09-19T13:51:27;98044.13;;;26.46;72.11
6413;BME280;3239;48.714;9.472;2023-09-19T13:53:54;98044.41;;;28.06;68.29
6413;BME280;3239;48.714;9.472;2023-09-19T13:56:20;98042.78;;;27.81;65.35
6413;BME280;3239;48.714;9.472;2023-09-19T13:58:47;98042.28;;;28.43;62.94
6413;BME280;3239;48.714;9.472;2023-09-19T14:01:13;98045.53;;;29.37;58.35
6413;BME280;3239;48.714;9.472;2023-09-19T14:03:39;98037.53;;;27.56;64.48
6413;BME280;3239;48.714;9.472;2023-09-19T14:06:05;98037.28;;;28.61;63.66
6413;BME280;3239;48.714;9.472;2023-09-19T14:08:31;98044.22;;;27.82;61.15
6413;BME280;3239;48.714;9.472;2023-09-19T14:11:05;98042.34;;;28.65;60.85
6413;BME280;3239;48.714;9.472;2023-09-19T14:13:30;98047.25;;;28.45;62.09
6413;BME280;3239;48.714;9.472;2023-09-19T14:15:56;98041.94;;;29.35;59.33
6413;BME280;3239;48.714;9.472;2023-09-19T14:18:22;98042.66;;;27.97;61.96
6413;BME280;3239;48.714;9.472;2023-09-19T14:20:47;98042.03;;;28.18;60.51
6413;BME280;3239;48.714;9.472;2023-09-19T14:23:13;98036.84;;;25.64;64.14
6413;BME280;3239;48.714;9.472;2023-09-19T14:25:38;98040.84;;;25.30;73.44